Time;durP1;ratioP1;P1;durP2;ratioP2;P2;SDS_P1;SDS_P2;PMS_P1;PMS_P2;Temp;Humidity;BMP_temperature;BMP_pressure;BME280_temperature;BME280_humidity;BME280_pressure;Samples;Min_cycle;Max_cycle;Signal;HPM_P1;HPM_P2
2023/10/01 00:01:55;;;;;;;9.60;3.72;;;10.00;99.90;;;;;;2603778;54;20046;31
2023/10/01 00:04:35;;;;;;;6.95;3.17;;;10.00;99.90;;;;;;2603328;54;20871;31
2023/10/01 00:07:10;;;;;;;6.10;3.10;;;10.00;99.90;;;;;;2603586;54;19996;31
2023/10/01 00:09:50;;;;;;;8.30;2.90;;;9.90;99.90;;;;;;2603495;54;21552;31
2023/10/01 00:12:24;;;;;;;5.25;2.80;;;9.90;99.90;;;;;;2603493;54;20037;31
2023/10/01 00:15:05;;;;;;;9.27;3.70;;;9.90;99.90;;;;;;2603726;54;20911;31
2023/10/01 00:17:43;;;;;;;7.50;3.00;;;9.80;99.90;;;;;;2603281;54;21545;31
2023/10/01 00:20:23;;;;;;;9.60;3.80;;;9.80;99.90;;;;;;2603616;54;21853;31
2023/10/01 00:23:02;;;;;;;6.38;3.85;;;9.70;99.90;;;;;;2603234;54;20042;31
2023/10/01 00:25:38;;;;;;;6.55;4.00;;;9.70;99.90;;;;;;2621636;46;20874;31
2023/10/01 00:28:16;;;;;;;8.00;3.92;;;9.70;99.90;;;;;;2603138;54;19942;31
2023/10/01 00:30:58;;;;;;;7.70;3.95;;;9.60;99.90;;;;;;2603259;54;20889;31
2023/10/01 00:33:39;;;;;;;5.38;3.38;;;9.70;99.90;;;;;;2603299;54;20087;31
2023/10/01 00:36:17;;;;;;;10.80;3.72;;;9.70;99.90;;;;;;2603473;54;21565;31
2023/10/01 00:39:08;;;;;;;6.85;3.75;;;9.70;99.90;;;;;;2773369;31;21557;31
2023/10/01 00:41:46;;;;;;;7.15;4.00;;;9.70;99.90;;;;;;2613294;46;20889;31
2023/10/01 00:44:20;;;;;;;10.73;4.05;;;9.70;99.90;;;;;;2603368;54;20031;31
2023/10/01 00:47:04;;;;;;;9.77;4.23;;;9.70;99.90;;;;;;2602775;54;20022;31
2023/10/01 00:49:46;;;;;;;9.70;3.90;;;9.70;99.90;;;;;;2603128;54;20029;31
2023/10/01 00:52:28;;;;;;;7.25;3.55;;;9.70;99.90;;;;;;2700912;39;20669;31
2023/10/01 00:55:04;;;;;;;9.70;3.25;;;9.70;99.90;;;;;;2621606;46;20967;31
2023/10/01 00:57:45;;;;;;;5.28;3.53;;;9.70;99.90;;;;;;2602984;54;20655;31
2023/10/01 01:00:25;;;;;;;6.18;3.47;;;9.70;99.90;;;;;;2603335;54;20869;31
2023/10/01 01:03:22;;;;;;;9.35;4.20;;;9.60;99.90;;;;;;2602382;54;20728;31
2023/10/01 01:06:17;;;;;;;9.52;3.83;;;9.60;99.90;;;;;;2701650;39;21430;31
2023/10/01 01:08:54;;;;;;;4.90;3.20;;;9.60;99.90;;;;;;2773270;31;20504;31
2023/10/01 01:11:31;;;;;;;9.05;3.72;;;9.60;99.90;;;;;;2621332;46;20970;31
2023/10/01 01:14:07;;;;;;;6.55;3.03;;;9.60;99.90;;;;;;2603147;54;20925;31
2023/10/01 01:16:48;;;;;;;7.80;3.53;;;9.50;99.90;;;;;;2602776;54;20596;31
2023/10/01 01:19:29;;;;;;;5.93;3.22;;;9.60;99.90;;;;;;2619801;46;20953;31
2023/10/01 01:22:09;;;;;;;7.20;3.22;;;9.50;99.90;;;;;;2602424;54;20062;31
2023/10/01 01:24:50;;;;;;;6.20;3.30;;;9.50;99.90;;;;;;2602495;54;20899;31
2023/10/01 01:27:31;;;;;;;7.43;3.38;;;9.50;99.90;;;;;;2602295;54;20049;31
2023/10/01 01:30:09;;;;;;;6.25;3.15;;;9.50;99.90;;;;;;2603202;54;20508;31
2023/10/01 01:32:45;;;;;;;6.85;3.65;;;9.50;99.90;;;;;;2614827;46;20109;31
2023/10/01 01:35:30;;;;;;;11.48;3.35;;;9.50;99.90;;;;;;2602307;54;20887;31
2023/10/01 01:38:08;;;;;;;8.90;3.05;;;9.60;99.90;;;;;;2602386;54;20915;31
2023/10/01 01:40:53;;;;;;;6.53;3.33;;;9.50;99.90;;;;;;2602455;54;20074;31
2023/10/01 01:43:38;;;;;;;12.90;3.28;;;9.50;99.90;;;;;;2602940;54;20783;31
2023/10/01 01:46:19;;;;;;;5.57;2.90;;;9.40;99.90;;;;;;2603054;54;20022;31
2023/10/01 01:48:56;;;;;;;7.88;3.05;;;9.50;99.90;;;;;;2603047;54;20030;31
2023/10/01 01:51:35;;;;;;;6.63;3.75;;;9.50;99.90;;;;;;2610434;47;20026;31
2023/10/01 01:54:11;;;;;;;9.02;3.60;;;9.40;99.90;;;;;;2713791;39;20502;31
2023/10/01 01:56:52;;;;;;;9.57;3.33;;;9.40;99.90;;;;;;2602961;54;20034;31
2023/10/01 01:59:29;;;;;;;5.85;2.78;;;9.40;99.90;;;;;;2719787;39;21541;31
2023/10/01 02:02:07;;;;;;;8.17;3.40;;;9.40;99.90;;;;;;2621893;47;20865;31
2023/10/01 02:07:39;;;;;;;7.25;3.63;;;9.30;99.90;;;;;;2602944;54;20064;31
2023/10/01 02:10:20;;;;;;;6.30;3.00;;;9.30;99.90;;;;;;2602528;54;20136;31
2023/10/01 02:12:59;;;;;;;8.05;3.50;;;9.30;99.90;;;;;;2612825;46;20022;31
2023/10/01 02:15:35;;;;;;;5.68;3.10;;;9.30;99.90;;;;;;2603109;54;20026;31
2023/10/01 02:18:13;;;;;;;10.05;2.85;;;9.30;99.90;;;;;;2603341;54;20878;31
2023/10/01 02:20:52;;;;;;;6.93;2.88;;;9.30;99.90;;;;;;2702223;39;20450;31
2023/10/01 02:23:33;;;;;;;5.05;3.00;;;9.30;99.90;;;;;;2603915;54;20027;31
2023/10/01 02:26:07;;;;;;;6.25;2.88;;;9.30;99.90;;;;;;2603912;54;20879;31
2023/10/01 02:28:47;;;;;;;7.50;3.37;;;9.30;99.90;;;;;;2603775;54;20841;31
2023/10/01 02:31:24;;;;;;;5.40;2.65;;;9.30;99.90;;;;;;2603598;54;20782;31
2023/10/01 02:34:03;;;;;;;6.77;3.50;;;9.30;99.90;;;;;;2603655;54;20105;31
2023/10/01 02:36:42;;;;;;;6.90;3.08;;;9.40;99.90;;;;;;2603852;54;20030;31
2023/10/01 02:39:27;;;;;;;5.55;2.72;;;9.30;99.90;;;;;;2602935;54;20890;31
2023/10/01 02:42:11;;;;;;;6.55;3.10;;;9.40;99.90;;;;;;2603800;54;20026;31
2023/10/01 02:44:53;;;;;;;6.40;2.88;;;9.40;99.90;;;;;;2773699;31;25092;31
2023/10/01 02:47:31;;;;;;;5.55;2.90;;;9.40;99.90;;;;;;2603519;54;20038;31
2023/10/01 02:50:15;;;;;;;5.15;3.10;;;9.40;99.90;;;;;;2614678;46;20577;31
2023/10/01 02:52:55;;;;;;;6.33;3.07;;;9.40;99.90;;;;;;2603697;54;20819;31
2023/10/01 02:55:32;;;;;;;8.97;2.63;;;9.40;99.90;;;;;;2603877;54;20250;31
2023/10/01 02:58:17;;;;;;;5.35;3.05;;;9.40;99.90;;;;;;2603677;54;20034;31
2023/10/01 03:03:38;;;;;;;5.13;2.47;;;9.40;99.90;;;;;;2603343;54;20105;31
2023/10/01 03:06:16;;;;;;;3.80;1.97;;;9.50;99.90;;;;;;2603799;54;20157;31
2023/10/01 03:09:10;;;;;;;6.07;2.97;;;9.50;99.90;;;;;;2603528;54;20099;31
2023/10/01 03:11:53;;;;;;;5.50;2.20;;;9.50;99.90;;;;;;2603891;54;20048;31
2023/10/01 03:14:28;;;;;;;7.33;2.87;;;9.50;99.90;;;;;;2622284;46;20304;31
2023/10/01 03:17:09;;;;;;;7.28;2.65;;;9.50;99.90;;;;;;2603595;54;20034;31
2023/10/01 03:19:46;;;;;;;5.50;2.57;;;9.50;99.90;;;;;;2603517;54;20038;31
2023/10/01 03:22:31;;;;;;;9.02;4.25;;;9.60;99.90;;;;;;2606335;46;20781;31
2023/10/01 03:25:28;;;;;;;7.18;3.53;;;9.60;99.90;;;;;;2609120;46;20840;31
2023/10/01 03:28:07;;;;;;;9.55;3.80;;;9.60;99.90;;;;;;2702143;39;20370;31
2023/10/01 03:30:47;;;;;;;7.85;3.45;;;9.60;99.90;;;;;;2603498;54;20883;31
2023/10/01 03:33:30;;;;;;;6.67;2.50;;;9.60;99.90;;;;;;2603630;54;20037;31
2023/10/01 03:36:11;;;;;;;4.65;2.60;;;9.60;99.90;;;;;;2603575;54;20777;31
2023/10/01 03:38:49;;;;;;;9.00;3.17;;;9.70;99.90;;;;;;2603653;54;20031;31
2023/10/01 03:41:27;;;;;;;5.72;2.67;;;9.70;99.90;;;;;;2602647;54;20042;31
2023/10/01 03:44:08;;;;;;;7.55;3.22;;;9.70;99.90;;;;;;2602627;54;20023;31
2023/10/01 03:46:45;;;;;;;8.13;3.17;;;9.70;99.90;;;;;;2602930;54;22440;31
2023/10/01 03:49:40;;;;;;;6.80;2.73;;;9.80;99.90;;;;;;2603212;54;20030;31
2023/10/01 03:52:20;;;;;;;5.20;2.85;;;9.80;99.90;;;;;;2622065;46;20026;31
2023/10/01 03:55:25;;;;;;;5.13;2.33;;;9.80;99.90;;;;;;2603477;54;20030;31
2023/10/01 03:58:18;;;;;;;7.35;2.50;;;9.80;99.90;;;;;;2603650;54;20647;31
2023/10/01 04:01:15;;;;;;;4.70;2.92;;;9.80;99.90;;;;;;2603503;54;20104;31
2023/10/01 04:03:51;;;;;;;4.97;2.20;;;9.90;99.90;;;;;;2621714;46;20199;31
2023/10/01 04:06:27;;;;;;;5.83;2.30;;;9.90;99.90;;;;;;2617580;46;20026;31
2023/10/01 04:09:06;;;;;;;;;;;9.90;99.90;;;;;;2702004;39;21619;31
2023/10/01 04:11:57;;;;;;;4.70;2.40;;;9.90;99.90;;;;;;2602774;46;21498;31
2023/10/01 04:14:39;;;;;;;5.25;2.10;;;10.00;99.90;;;;;;2603333;54;21735;31
2023/10/01 04:17:17;;;;;;;5.85;2.65;;;9.90;99.90;;;;;;2702200;39;21120;31
2023/10/01 04:20:00;;;;;;;3.03;1.70;;;9.90;99.90;;;;;;2701860;39;21443;31
2023/10/01 04:22:36;;;;;;;3.10;1.58;;;10.00;99.90;;;;;;2603352;54;20242;31
2023/10/01 04:25:10;;;;;;;;;;;10.00;99.90;;;;;;2603638;54;20030;31
2023/10/01 04:27:50;;;;;;;6.87;2.03;;;10.00;99.90;;;;;;2622066;46;20016;31
2023/10/01 04:30:27;;;;;;;4.25;2.28;;;10.00;99.90;;;;;;2603617;54;20022;31
2023/10/01 04:33:23;;;;;;;8.38;2.80;;;10.00;99.90;;;;;;2603191;54;20022;31
2023/10/01 04:36:01;;;;;;;4.05;2.00;;;10.00;99.90;;;;;;2603557;54;20030;31
2023/10/01 04:38:41;;;;;;;4.80;2.85;;;10.10;99.90;;;;;;2603498;54;20026;31
2023/10/01 04:41:21;;;;;;;5.30;2.30;;;10.10;99.90;;;;;;2621832;46;20037;31
2023/10/01 04:43:59;;;;;;;5.75;2.70;;;10.10;99.90;;;;;;2603547;54;20046;31
2023/10/01 04:46:40;;;;;;;5.07;2.57;;;10.10;99.90;;;;;;2603459;54;20058;31
2023/10/01 04:49:41;;;;;;;6.65;3.15;;;10.20;99.90;;;;;;2603462;54;19957;31
2023/10/01 04:52:24;;;;;;;6.80;2.43;;;10.20;99.90;;;;;;2621848;46;20026;31
2023/10/01 04:55:00;;;;;;;3.67;2.03;;;10.20;99.90;;;;;;2603200;54;20038;31
2023/10/01 04:57:56;;;;;;;4.70;2.35;;;10.20;99.90;;;;;;2603257;54;20057;31
2023/10/01 05:00:38;;;;;;;9.20;2.90;;;10.30;99.90;;;;;;2621731;46;20030;31
2023/10/01 05:03:20;;;;;;;6.10;2.23;;;10.30;99.90;;;;;;2603320;54;20050;31
2023/10/01 05:05:58;;;;;;;8.32;1.95;;;10.30;99.90;;;;;;2701840;39;21479;31
2023/10/01 05:08:38;;;;;;;5.22;2.30;;;10.40;99.90;;;;;;2603341;54;20586;31
2023/10/01 05:11:21;;;;;;;6.13;2.60;;;10.30;99.90;;;;;;2621272;46;22573;31
2023/10/01 05:14:04;;;;;;;7.07;2.35;;;10.40;99.90;;;;;;2602866;54;20053;31
2023/10/01 05:16:46;;;;;;;6.80;3.00;;;10.40;99.90;;;;;;2602852;54;20651;31
2023/10/01 05:19:23;;;;;;;6.22;2.70;;;10.40;99.90;;;;;;2602871;54;21134;31
2023/10/01 05:22:05;;;;;;;4.05;2.35;;;10.50;99.90;;;;;;2603412;54;20045;31
2023/10/01 05:24:48;;;;;;;5.28;2.88;;;10.50;99.90;;;;;;2701596;39;20484;31
2023/10/01 05:27:28;;;;;;;5.30;2.50;;;10.50;99.90;;;;;;2603348;54;20899;31
2023/10/01 05:30:32;;;;;;;6.00;2.47;;;10.50;99.90;;;;;;2603044;54;20049;31
2023/10/01 05:33:05;;;;;;;5.68;2.92;;;10.60;99.90;;;;;;2603196;54;20037;31
2023/10/01 05:35:44;;;;;;;6.25;2.53;;;10.70;99.90;;;;;;2603098;54;20660;31
2023/10/01 05:38:26;;;;;;;4.40;2.40;;;10.70;99.90;;;;;;2608240;46;20018;31
2023/10/01 05:41:04;;;;;;;9.15;3.25;;;10.80;99.90;;;;;;2602296;54;20942;31
2023/10/01 05:43:43;;;;;;;7.32;2.28;;;10.80;99.90;;;;;;2621793;46;20082;31
2023/10/01 05:46:22;;;;;;;4.90;1.70;;;10.80;99.90;;;;;;2701501;39;20447;31
2023/10/01 05:49:04;;;;;;;9.43;3.43;;;10.90;99.90;;;;;;2603090;54;20030;31
2023/10/01 05:51:45;;;;;;;5.82;2.70;;;10.90;99.90;;;;;;2621031;47;20040;31
2023/10/01 05:54:34;;;;;;;4.95;2.30;;;10.90;99.90;;;;;;2619970;47;20034;31
2023/10/01 05:57:18;;;;;;;5.40;2.63;;;11.00;99.90;;;;;;2628101;47;20027;31
2023/10/01 06:00:00;;;;;;;6.60;3.03;;;11.10;99.90;;;;;;2603264;54;20905;31
2023/10/01 06:03:00;;;;;;;9.47;3.33;;;11.10;99.90;;;;;;2602989;54;20029;31
2023/10/01 06:05:43;;;;;;;7.22;4.07;;;11.10;99.90;;;;;;2603113;54;20879;31
2023/10/01 06:08:24;;;;;;;6.60;3.20;;;11.10;99.90;;;;;;2603082;54;20122;31
2023/10/01 06:11:09;;;;;;;7.00;3.00;;;11.20;99.90;;;;;;2621436;47;20070;31
2023/10/01 06:13:56;;;;;;;8.15;3.15;;;11.30;99.90;;;;;;2602417;54;20930;31
2023/10/01 06:16:37;;;;;;;8.23;3.42;;;11.40;99.90;;;;;;2602890;54;20048;31
2023/10/01 06:19:14;;;;;;;8.60;2.80;;;11.50;99.90;;;;;;2602865;54;20034;31
2023/10/01 06:21:50;;;;;;;6.97;3.67;;;11.50;99.90;;;;;;2602114;54;21019;31
2023/10/01 06:24:30;;;;;;;6.90;3.20;;;11.60;99.90;;;;;;2621479;47;20053;31
2023/10/01 06:27:06;;;;;;;8.40;3.80;;;11.70;99.90;;;;;;2602284;54;20037;31
2023/10/01 06:29:52;;;;;;;8.00;3.20;;;11.80;99.90;;;;;;2602804;54;20053;31
2023/10/01 06:32:27;;;;;;;8.15;3.40;;;12.00;99.90;;;;;;2602820;54;20161;31
2023/10/01 06:35:14;;;;;;;11.60;4.13;;;12.10;99.90;;;;;;2602960;54;20912;31
2023/10/01 06:37:50;;;;;;;11.75;3.15;;;12.20;99.90;;;;;;2602865;54;20928;31
2023/10/01 06:40:32;;;;;;;9.13;3.88;;;12.30;99.90;;;;;;2602724;54;20072;31
2023/10/01 06:43:09;;;;;;;12.23;3.87;;;12.50;99.90;;;;;;2602143;54;20035;31
2023/10/01 06:45:50;;;;;;;8.90;3.67;;;12.50;99.90;;;;;;2603048;54;21200;31
2023/10/01 06:48:31;;;;;;;10.23;3.28;;;12.60;99.90;;;;;;2621533;47;20179;31
2023/10/01 06:51:08;;;;;;;7.47;3.58;;;12.60;99.90;;;;;;2621416;47;20027;31
2023/10/01 06:53:54;;;;;;;8.17;3.90;;;12.70;99.90;;;;;;2602692;54;20027;31
2023/10/01 06:56:33;;;;;;;11.32;4.00;;;12.80;99.90;;;;;;2602999;54;20140;31
2023/10/01 06:59:17;;;;;;;10.02;3.97;;;12.90;99.90;;;;;;2602894;54;20023;31
2023/10/01 07:01:56;;;;;;;9.38;4.30;;;13.00;99.90;;;;;;2603860;54;20026;31
2023/10/01 07:04:36;;;;;;;9.95;4.15;;;13.10;99.90;;;;;;2603487;54;20029;31
2023/10/01 07:07:24;;;;;;;8.00;4.00;;;13.10;99.90;;;;;;2611938;46;20023;31
2023/10/01 07:10:10;;;;;;;11.30;4.90;;;13.20;99.90;;;;;;2602848;54;20028;31
2023/10/01 07:13:04;;;;;;;10.67;4.90;;;13.20;99.90;;;;;;2622166;46;20027;31
2023/10/01 07:15:44;;;;;;;14.10;4.90;;;13.30;99.90;;;;;;2603469;54;20053;31
2023/10/01 07:18:24;;;;;;;11.00;5.13;;;13.40;99.90;;;;;;2603573;54;20976;31
2023/10/01 07:21:03;;;;;;;13.17;5.07;;;13.50;99.90;;;;;;2603306;54;20026;31
2023/10/01 07:23:46;;;;;;;12.45;5.78;;;14.10;99.90;;;;;;2603647;54;20912;31
2023/10/01 07:26:22;;;;;;;12.73;5.07;;;13.60;99.90;;;;;;2603379;54;20038;31
2023/10/01 07:29:02;;;;;;;16.23;5.43;;;13.70;99.90;;;;;;2603498;54;20759;31
2023/10/01 07:31:38;;;;;;;9.38;3.92;;;13.80;99.90;;;;;;2603623;54;20053;31
2023/10/01 07:34:19;;;;;;;12.07;4.63;;;13.90;99.90;;;;;;2603576;54;20027;31
2023/10/01 07:36:54;;;;;;;8.02;3.90;;;14.00;99.90;;;;;;2621761;46;20939;31
2023/10/01 07:39:35;;;;;;;8.38;3.17;;;14.00;99.90;;;;;;2603572;54;20049;31
2023/10/01 07:42:10;;;;;;;11.25;3.97;;;14.20;99.90;;;;;;2603174;54;20913;31
2023/10/01 07:44:49;;;;;;;11.20;4.00;;;14.20;99.90;;;;;;2622225;46;20033;31
2023/10/01 07:47:33;;;;;;;9.27;4.15;;;14.40;99.90;;;;;;2603401;54;20936;31
2023/10/01 07:50:20;;;;;;;10.83;4.23;;;14.50;99.90;;;;;;2603579;54;20023;31
2023/10/01 07:53:03;;;;;;;7.90;3.30;;;14.50;99.90;;;;;;2603477;54;20038;31
2023/10/01 07:55:41;;;;;;;11.80;3.72;;;14.60;99.90;;;;;;2622215;46;20027;31
2023/10/01 08:04:09;;;;;;;12.13;4.07;;;14.90;99.90;;;;;;2603518;54;20830;31
2023/10/01 08:06:56;;;;;;;11.25;3.80;;;15.00;99.90;;;;;;2621934;46;20874;31
2023/10/01 08:09:32;;;;;;;8.50;3.40;;;15.10;99.90;;;;;;2603496;54;20026;31
2023/10/01 08:12:08;;;;;;;13.40;4.45;;;15.10;99.90;;;;;;2603548;54;20029;31
2023/10/01 08:15:15;;;;;;;9.43;3.30;;;15.20;99.90;;;;;;2602603;54;20869;31
2023/10/01 08:17:54;;;;;;;10.30;3.25;;;15.20;99.90;;;;;;2603298;54;20144;31
2023/10/01 08:20:32;;;;;;;10.20;3.80;;;15.30;99.90;;;;;;2603516;54;20108;31
2023/10/01 08:23:23;;;;;;;9.82;4.22;;;15.40;99.90;;;;;;2603251;54;20894;31
2023/10/01 08:26:41;;;;;;;8.07;3.00;;;15.40;99.90;;;;;;2603658;54;20141;31
2023/10/01 08:28:59;;;;;;;7.23;2.80;;;15.60;99.90;;;;;;2603602;54;20029;31
2023/10/01 08:37:49;;;;;;;7.60;2.17;;;16.00;99.90;;;;;;2603173;54;20050;31
2023/10/01 08:40:27;;;;;;;5.47;2.23;;;16.30;99.90;;;;;;2603197;54;20086;31
2023/10/01 08:43:13;;;;;;;8.45;2.05;;;16.50;99.90;;;;;;2603536;54;20022;31
2023/10/01 08:45:53;;;;;;;9.70;2.22;;;16.50;99.90;;;;;;2701762;39;21458;31
2023/10/01 08:48:36;;;;;;;7.40;1.50;;;16.70;99.90;;;;;;2603494;54;20026;31
2023/10/01 08:51:16;;;;;;;7.03;1.97;;;16.80;99.90;;;;;;2603202;54;20958;31
2023/10/01 08:53:56;;;;;;;7.10;1.85;;;16.90;99.90;;;;;;2602491;54;20847;31
2023/10/01 08:56:37;;;;;;;5.35;1.80;;;17.00;99.90;;;;;;2603294;54;20129;31
2023/10/01 08:59:23;;;;;;;4.13;1.63;;;17.00;99.90;;;;;;2603230;54;20112;31
2023/10/01 09:02:15;;;;;;;;;;;17.10;99.90;;;;;;2702089;39;21448;31
2023/10/01 09:04:53;;;;;;;7.32;1.70;;;17.20;99.90;;;;;;2621539;46;19934;31
2023/10/01 09:07:34;;;;;;;6.80;2.00;;;17.30;99.90;;;;;;2603298;54;20038;31
2023/10/01 09:10:19;;;;;;;5.90;1.85;;;17.40;99.90;;;;;;2621415;46;20042;31
2023/10/01 09:13:03;;;;;;;10.23;1.50;;;17.40;99.90;;;;;;2603167;54;21225;31
2023/10/01 09:15:43;;;;;;;9.70;2.20;;;17.50;99.90;;;;;;2621588;46;20027;31
2023/10/01 09:18:22;;;;;;;6.65;1.92;;;17.50;99.90;;;;;;2603147;54;20480;31
2023/10/01 09:21:09;;;;;;;8.95;2.00;;;17.60;99.90;;;;;;2602989;54;20033;31
2023/10/01 09:24:11;;;;;;;5.28;1.92;;;17.70;99.90;;;;;;2621746;46;20066;31
2023/10/01 09:26:56;;;;;;;7.37;2.20;;;17.80;99.90;;;;;;2603531;54;20022;31
2023/10/01 09:29:32;;;;;;;10.32;2.15;;;17.90;99.90;;;;;;2602464;54;20246;31
2023/10/01 09:32:19;;;;;;;4.45;1.60;;;18.00;99.90;;;;;;2603111;54;20030;31
2023/10/01 09:34:58;;;;;;;9.50;2.30;;;18.10;99.90;;;;;;2603291;54;20045;31
2023/10/01 09:37:52;;;;;;;7.40;2.45;;;18.20;99.90;;;;;;2621548;46;20112;31
2023/10/01 09:40:38;;;;;;;7.43;1.80;;;18.30;99.90;;;;;;2603105;54;20173;31
2023/10/01 09:43:24;;;;;;;6.73;1.67;;;18.30;99.90;;;;;;2602985;54;20031;31
2023/10/01 09:46:06;;;;;;;7.78;2.00;;;18.40;99.90;;;;;;2603067;54;20026;31
2023/10/01 09:49:00;;;;;;;5.43;1.60;;;18.50;99.90;;;;;;2603124;54;20983;31
2023/10/01 09:51:41;;;;;;;6.10;1.77;;;18.60;99.90;;;;;;2603134;54;20114;31
2023/10/01 09:54:28;;;;;;;4.17;1.37;;;18.70;99.90;;;;;;2603010;54;20038;31
2023/10/01 09:57:09;;;;;;;7.90;1.92;;;18.90;99.90;;;;;;2602928;54;20027;31
2023/10/01 09:59:49;;;;;;;3.83;1.17;;;18.90;99.90;;;;;;2602914;54;19989;31
2023/10/01 10:02:31;;;;;;;3.72;1.20;;;19.00;99.90;;;;;;2602280;54;20767;31
2023/10/01 10:05:24;;;;;;;9.00;1.55;;;19.00;99.90;;;;;;2602794;54;20867;31
2023/10/01 10:08:13;;;;;;;4.03;1.23;;;19.10;99.90;;;;;;2602915;54;20034;31
2023/10/01 10:10:52;;;;;;;5.72;1.00;;;19.20;99.90;;;;;;2603019;54;20022;31
2023/10/01 10:13:45;;;;;;;2.65;0.85;;;19.40;99.90;;;;;;2602316;54;20950;31
2023/10/01 10:16:35;;;;;;;5.25;1.00;;;19.50;99.90;;;;;;2602843;54;20802;31
2023/10/01 10:19:20;;;;;;;4.22;0.80;;;19.60;99.90;;;;;;2602531;54;20018;31
2023/10/01 10:22:21;;;;;;;4.40;1.10;;;19.60;99.90;;;;;;2602612;54;20022;31
2023/10/01 10:28:41;;;;;;;;;;;;;;;;;;;;;
2023/10/01 10:31:33;;;;;;;3.75;0.82;;;20.00;99.90;;;;;;2603336;54;20112;31
2023/10/01 10:34:36;;;;;;;2.67;1.10;;;20.10;99.90;;;;;;2622208;46;20101;31
2023/10/01 10:37:15;;;;;;;3.37;0.87;;;20.20;99.90;;;;;;2603962;54;20050;31
2023/10/01 10:40:13;;;;;;;3.87;0.90;;;20.30;99.90;;;;;;2603493;54;20033;31
2023/10/01 10:42:49;;;;;;;4.07;0.80;;;20.30;99.90;;;;;;2620105;46;20023;31
2023/10/01 10:45:21;;;;;;;2.45;0.55;;;20.30;99.90;;;;;;2603773;54;20920;31
2023/10/01 10:48:04;;;;;;;4.43;0.90;;;20.40;99.90;;;;;;2617629;46;22661;31
2023/10/01 10:50:53;;;;;;;4.90;0.98;;;20.40;99.90;;;;;;2603649;54;20027;31
2023/10/01 10:53:46;;;;;;;4.05;0.95;;;20.50;99.90;;;;;;2622590;46;20045;31
2023/10/01 10:56:35;;;;;;;3.13;0.40;;;20.60;99.90;;;;;;2603791;54;20033;31
2023/10/01 10:59:14;;;;;;;2.05;0.60;;;20.60;99.90;;;;;;2603745;54;20034;31
2023/10/01 11:01:59;;;;;;;6.40;1.10;;;20.60;99.90;;;;;;2603014;54;20030;31
2023/10/01 11:04:41;;;;;;;2.58;0.80;;;20.60;99.90;;;;;;2603630;54;20030;31
2023/10/01 11:07:20;;;;;;;3.80;0.90;;;20.60;99.90;;;;;;2603485;54;20852;31
2023/10/01 11:10:04;;;;;;;4.40;0.80;;;20.80;99.90;;;;;;2603545;54;21171;31
2023/10/01 11:12:54;;;;;;;2.70;0.60;;;20.90;99.90;;;;;;2603553;54;20030;31
2023/10/01 11:15:39;;;;;;;2.80;0.90;;;21.10;99.90;;;;;;2603481;54;20038;31
2023/10/01 11:18:17;;;;;;;2.88;0.55;;;21.10;99.90;;;;;;2621783;46;20030;31
2023/10/01 11:21:01;;;;;;;3.45;0.70;;;21.10;99.90;;;;;;2603841;54;20026;31
2023/10/01 11:23:38;;;;;;;4.35;0.57;;;21.10;99.90;;;;;;2603572;54;20867;31
2023/10/01 11:26:29;;;;;;;3.30;0.60;;;21.00;99.90;;;;;;2603625;54;20034;31
2023/10/01 11:29:11;;;;;;;3.88;1.00;;;21.00;99.90;;;;;;2603725;54;20026;31
2023/10/01 11:31:46;;;;;;;6.28;0.98;;;21.00;99.90;;;;;;2622280;46;20907;31
2023/10/01 11:34:33;;;;;;;1.50;0.60;;;21.00;99.90;;;;;;2602888;54;20905;31
2023/10/01 11:37:17;;;;;;;2.97;0.50;;;20.90;99.90;;;;;;2603606;54;20846;31
2023/10/01 11:39:53;;;;;;;3.70;0.95;;;21.00;99.90;;;;;;2603929;54;21851;31
2023/10/01 11:42:35;;;;;;;5.83;1.00;;;21.00;99.90;;;;;;2603294;54;20022;31
2023/10/01 11:45:34;;;;;;;3.47;0.80;;;21.00;99.90;;;;;;2621387;46;20268;31
2023/10/01 11:48:23;;;;;;;3.30;0.82;;;21.10;99.90;;;;;;2604685;46;20031;31
2023/10/01 11:51:08;;;;;;;2.70;0.70;;;21.10;99.90;;;;;;2603429;54;20031;31
2023/10/01 11:54:09;;;;;;;3.10;0.70;;;21.20;99.90;;;;;;2603476;54;20246;31
2023/10/01 11:56:46;;;;;;;4.70;0.60;;;21.20;99.90;;;;;;2621916;46;20871;31
2023/10/01 12:05:02;;;;;;;2.13;0.63;;;21.20;99.90;;;;;;2603618;54;20992;31
2023/10/01 12:07:43;;;;;;;4.38;0.70;;;21.10;99.90;;;;;;2603379;54;20050;31
2023/10/01 12:13:13;;;;;;;2.05;0.68;;;21.20;99.90;;;;;;2603547;54;20026;31
2023/10/01 12:15:53;;;;;;;3.57;0.80;;;21.30;99.90;;;;;;2603358;54;20859;31
2023/10/01 12:18:44;;;;;;;3.30;0.75;;;21.30;99.90;;;;;;2602714;54;20979;31
2023/10/01 12:21:27;;;;;;;4.07;0.75;;;21.40;99.90;;;;;;2603490;54;20033;31
2023/10/01 12:24:12;;;;;;;2.08;0.57;;;21.40;99.90;;;;;;2621775;46;20149;31
2023/10/01 12:26:54;;;;;;;2.50;0.70;;;21.50;99.90;;;;;;2603378;54;20022;31
2023/10/01 12:29:42;;;;;;;3.05;0.80;;;21.60;99.90;;;;;;2603543;54;20031;31
2023/10/01 12:32:40;;;;;;;2.65;0.55;;;21.60;99.90;;;;;;2603243;54;20033;31
2023/10/01 12:35:37;;;;;;;3.80;0.67;;;21.60;99.90;;;;;;2603551;54;20030;31
2023/10/01 12:38:26;;;;;;;2.85;1.20;;;21.60;99.90;;;;;;2603179;54;20767;31
2023/10/01 12:41:02;;;;;;;3.20;0.75;;;21.50;99.90;;;;;;2621536;46;20026;31
2023/10/01 12:43:41;;;;;;;3.05;0.70;;;21.40;99.90;;;;;;2617198;46;20144;31
2023/10/01 12:46:18;;;;;;;5.20;0.77;;;21.40;99.90;;;;;;2621817;46;20030;31
2023/10/01 12:51:56;;;;;;;3.85;0.65;;;21.20;99.90;;;;;;2702168;39;20999;31
2023/10/01 12:54:36;;;;;;;4.38;0.82;;;21.10;99.90;;;;;;2764289;31;20030;31
2023/10/01 12:57:18;;;;;;;2.30;0.77;;;21.10;99.90;;;;;;2621877;46;20077;31
2023/10/01 13:00:21;;;;;;;4.95;0.85;;;21.10;99.90;;;;;;2603162;54;20038;31
2023/10/01 13:03:06;;;;;;;5.15;0.82;;;21.10;99.90;;;;;;2621683;46;20026;31
2023/10/01 13:05:43;;;;;;;7.25;1.20;;;21.00;99.90;;;;;;2603241;54;20026;31
2023/10/01 13:08:31;;;;;;;4.57;1.00;;;21.00;99.90;;;;;;2602573;54;20022;31
2023/10/01 13:11:09;;;;;;;2.08;0.95;;;21.00;99.90;;;;;;2603284;54;20877;31
2023/10/01 13:13:45;;;;;;;2.45;0.70;;;21.00;99.90;;;;;;2603214;54;20034;31
2023/10/01 13:16:25;;;;;;;;;;;20.90;99.90;;;;;;2603146;54;20026;31
2023/10/01 13:22:10;;;;;;;3.70;0.82;;;21.00;99.90;;;;;;2621503;46;20914;31
2023/10/01 13:24:56;;;;;;;1.95;0.77;;;21.00;99.90;;;;;;2602577;54;20875;31
2023/10/01 13:27:39;;;;;;;6.68;0.90;;;21.00;99.90;;;;;;2603352;54;20859;31
2023/10/01 13:30:23;;;;;;;2.35;0.70;;;21.00;99.90;;;;;;2603476;54;20022;31
2023/10/01 13:33:17;;;;;;;6.32;0.90;;;21.00;99.90;;;;;;2621665;46;20854;31
2023/10/01 13:36:12;;;;;;;2.90;0.90;;;21.00;99.90;;;;;;2603128;54;20046;31
2023/10/01 13:38:56;;;;;;;3.50;0.60;;;21.00;99.90;;;;;;2603082;54;20128;31
2023/10/01 14:10:45;;;;;;;4.35;0.93;;;20.60;99.90;;;;;;2603787;54;20602;31
2023/10/01 14:13:29;;;;;;;5.33;0.97;;;20.60;99.90;;;;;;2603737;54;20029;31
2023/10/01 14:16:22;;;;;;;3.33;0.60;;;20.60;99.90;;;;;;2603960;54;20050;31
2023/10/01 14:19:13;;;;;;;8.03;0.90;;;20.50;99.90;;;;;;2603972;54;20030;31
2023/10/01 14:21:52;;;;;;;3.78;0.82;;;20.50;99.90;;;;;;2621755;46;20042;31
2023/10/01 14:24:27;;;;;;;3.53;0.60;;;20.50;99.90;;;;;;2622455;46;20033;31
2023/10/01 14:27:24;;;;;;;3.40;0.77;;;20.50;99.90;;;;;;2609118;46;20048;31
2023/10/01 14:30:24;;;;;;;3.23;0.73;;;20.60;99.90;;;;;;2603931;54;20029;31
2023/10/01 14:33:23;;;;;;;3.33;1.00;;;20.60;99.90;;;;;;2604144;54;20022;31
2023/10/01 14:36:10;;;;;;;3.42;0.73;;;20.60;99.90;;;;;;2603737;54;20840;31
2023/10/01 14:38:49;;;;;;;3.93;1.10;;;20.60;99.90;;;;;;2603590;54;20898;31
2023/10/01 14:41:29;;;;;;;3.50;1.00;;;20.60;99.90;;;;;;2603688;54;20257;31
2023/10/01 14:44:08;;;;;;;1.83;0.80;;;20.60;99.90;;;;;;2622276;46;20026;31
2023/10/01 14:46:57;;;;;;;6.53;1.25;;;20.50;99.90;;;;;;2616789;46;20864;31
2023/10/01 14:52:22;;;;;;;;;;;20.40;99.90;;;;;;2604050;54;20030;31
2023/10/01 14:55:02;;;;;;;4.40;0.70;;;20.40;99.90;;;;;;2603483;54;20867;31
2023/10/01 14:57:40;;;;;;;3.67;0.98;;;20.40;99.90;;;;;;2603578;54;20057;31
2023/10/01 15:00:19;;;;;;;4.43;1.00;;;20.30;99.90;;;;;;2603724;54;20026;31
2023/10/01 15:02:56;;;;;;;6.20;0.90;;;20.20;99.90;;;;;;2603066;54;20772;31
2023/10/01 15:05:32;;;;;;;2.95;0.75;;;20.20;99.90;;;;;;2603551;54;20257;31
2023/10/01 15:08:29;;;;;;;1.87;0.70;;;20.20;99.90;;;;;;2603915;54;20023;31
2023/10/01 15:11:14;;;;;;;1.85;0.70;;;20.30;99.90;;;;;;2625505;46;20025;31
2023/10/01 15:14:03;;;;;;;2.90;0.57;;;20.20;99.90;;;;;;2603670;54;20129;31
2023/10/01 15:16:55;;;;;;;2.28;0.80;;;20.20;99.90;;;;;;2622115;46;20879;31
2023/10/01 15:19:53;;;;;;;2.55;0.77;;;20.20;99.90;;;;;;2603664;54;20035;31
2023/10/01 15:22:43;;;;;;;3.90;0.90;;;20.20;99.90;;;;;;2603351;54;20030;31
2023/10/01 15:25:32;;;;;;;3.42;0.75;;;20.10;99.90;;;;;;2603788;54;20046;31
2023/10/01 15:28:10;;;;;;;4.10;1.10;;;20.10;99.90;;;;;;2603832;54;20026;31
2023/10/01 15:30:50;;;;;;;4.28;1.08;;;20.00;99.90;;;;;;2602646;54;20922;31